Time;durP1;ratioP1;P1;durP2;ratioP2;P2;SDS_P1;SDS_P2;PMS_P1;PMS_P2;Temp;Humidity;BMP_temperature;BMP_pressure;BME280_temperature;BME280_humidity;BME280_pressure;Samples;Min_cycle;Max_cycle;Signal;HPM_P1;HPM_P2
2022/08/04 00:00:13;;;;;;;5.60;4.50;;;;;;;22.16;54.59;100669.80;106203;1273;24236;-79
2022/08/04 00:02:55;;;;;;;6.70;4.70;;;;;;;22.14;54.82;100674.58;105927;1273;24247;-77
2022/08/04 00:05:48;;;;;;;6.50;4.80;;;;;;;22.12;54.76;100670.36;105985;1273;22535;-78
2022/08/04 00:08:18;;;;;;;9.90;4.90;;;;;;;22.09;54.75;100670.17;106138;1273;25294;-76
2022/08/04 00:10:49;;;;;;;5.00;4.50;;;;;;;22.07;54.95;100671.02;106049;1273;24219;-77
2022/08/04 00:13:22;;;;;;;7.70;4.80;;;;;;;22.08;54.77;100674.89;106025;1273;24357;-76
2022/08/04 00:15:57;;;;;;;8.10;4.80;;;;;;;22.06;54.75;100676.64;106107;1273;26501;-76
2022/08/04 00:18:32;;;;;;;5.40;4.10;;;;;;;22.03;54.59;100673.52;106043;1273;22592;-77
2022/08/04 00:21:03;;;;;;;6.00;4.30;;;;;;;22.00;54.73;100674.41;106180;1273;22657;-76
2022/08/04 00:23:33;;;;;;;11.30;4.40;;;;;;;21.97;54.52;100672.95;105962;1273;22721;-74
2022/08/04 00:26:21;;;;;;;4.40;4.00;;;;;;;21.95;54.39;100669.27;105945;1273;24872;-76
2022/08/04 00:28:52;;;;;;;9.10;4.20;;;;;;;21.94;54.37;100670.92;106048;1273;25251;-76
2022/08/04 00:31:21;;;;;;;3.80;3.50;;;;;;;21.90;54.43;100668.81;105577;1279;22608;-75
2022/08/04 00:34:12;;;;;;;3.90;3.00;;;;;;;21.88;54.40;100676.08;105594;1278;24475;-76
2022/08/04 00:36:42;;;;;;;4.80;3.80;;;;;;;21.88;54.48;100674.14;105649;1279;24242;-75
2022/08/04 00:39:11;;;;;;;6.60;4.00;;;;;;;21.87;54.55;100674.70;105766;1279;22571;-77
2022/08/04 00:41:51;;;;;;;4.10;3.50;;;;;;;21.87;54.70;100675.79;105462;1281;25260;-75
2022/08/04 00:44:34;;;;;;;4.70;3.70;;;;;;;21.87;54.52;100674.70;105357;1281;24515;-75
2022/08/04 00:48:15;;;;;;;4.60;3.60;;;;;;;21.82;54.37;100670.67;105470;1281;22557;-74
2022/08/04 00:51:05;;;;;;;4.30;3.90;;;;;;;21.80;54.52;100676.17;104645;1288;25358;-77
2022/08/04 00:54:05;;;;;;;9.50;3.60;;;;;;;21.79;54.54;100678.02;105068;1284;26539;-75
2022/08/04 00:57:10;;;;;;;3.70;3.40;;;;;;;21.76;54.40;100679.00;105615;1276;22746;-76
2022/08/04 01:00:10;;;;;;;5.40;3.30;;;;;;;21.73;54.33;100681.66;105793;1274;24513;-77
2022/08/04 01:03:08;;;;;;;3.80;3.40;;;;;;;21.72;54.24;100677.60;106003;1273;24434;-78
2022/08/04 01:06:06;;;;;;;6.40;3.40;;;;;;;21.69;54.13;100678.85;106461;1273;24198;-74
2022/08/04 01:09:12;;;;;;;3.60;3.20;;;;;;;21.68;54.22;100681.77;108153;1273;22545;-74
2022/08/04 01:12:03;;;;;;;5.20;3.30;;;;;;;21.65;54.19;100684.75;106065;1273;22550;-77
2022/08/04 01:15:15;;;;;;;5.60;2.90;;;;;;;21.64;54.14;100686.63;106124;1273;25310;-77
2022/08/04 01:18:06;;;;;;;3.30;3.00;;;;;;;21.63;54.20;100688.66;105693;1279;22708;-78
2022/08/04 01:20:47;;;;;;;3.30;3.00;;;;;;;21.61;53.95;100689.64;106127;1273;22548;-78
2022/08/04 01:23:23;;;;;;;4.70;3.60;;;;;;;21.61;53.99;100690.72;106202;1273;22867;-75
2022/08/04 01:26:05;;;;;;;5.60;3.50;;;;;;;21.61;54.03;100690.00;106050;1273;25553;-77
2022/08/04 01:29:10;;;;;;;4.30;2.90;;;;;;;21.60;53.75;100692.91;106041;1273;22629;-76
2022/08/04 01:31:47;;;;;;;8.00;3.50;;;;;;;21.57;53.88;100690.57;106093;1275;25372;-76
2022/08/04 01:34:18;;;;;;;3.90;3.00;;;;;;;21.55;53.83;100691.74;106049;1274;22551;-79
2022/08/04 01:36:52;;;;;;;6.50;3.00;;;;;;;21.55;53.99;100694.95;106000;1274;22528;-81
2022/08/04 01:42:06;;;;;;;3.00;2.70;;;;;;;21.52;53.87;100692.06;106157;1273;22650;-78
2022/08/04 01:45:04;;;;;;;3.90;2.70;;;;;;;21.52;53.78;100692.40;106047;1273;25259;-75
2022/08/04 01:47:34;;;;;;;4.90;2.80;;;;;;;21.50;53.60;100694.64;106017;1273;25308;-77
2022/08/04 01:50:08;;;;;;;2.90;2.60;;;;;;;21.49;53.67;100694.88;106057;1274;22525;-78
2022/08/04 01:52:37;;;;;;;4.60;2.90;;;;;;;21.49;53.75;100692.55;106072;1273;22608;-77
2022/08/04 01:55:08;;;;;;;3.70;3.00;;;;;;;21.45;53.74;100687.91;106035;1273;24274;-77
2022/08/04 02:01:57;;;;;;;3.10;2.90;;;;;;;21.42;53.61;100692.02;105978;1273;24304;-77
2022/08/04 02:13:33;;;;;;;2.90;2.70;;;;;;;21.31;53.80;100689.48;105555;1280;24083;-75
2022/08/04 02:16:32;;;;;;;5.40;3.00;;;;;;;21.30;53.61;100686.52;105780;1273;25360;-76
2022/08/04 02:19:08;;;;;;;3.70;3.00;;;;;;;21.27;53.64;100680.16;106354;1273;22547;-75
2022/08/04 02:21:43;;;;;;;3.60;2.90;;;;;;;21.26;53.60;100676.80;106084;1273;25479;-74
2022/08/04 02:24:17;;;;;;;3.90;2.40;;;;;;;21.27;53.62;100675.91;106074;1273;22791;-74
2022/08/04 02:26:48;;;;;;;4.60;2.50;;;;;;;21.26;53.52;100673.77;106077;1273;22557;-76
2022/08/04 02:29:29;;;;;;;4.70;2.70;;;;;;;21.26;53.27;100671.27;105903;1273;25252;-75
2022/08/04 02:32:12;;;;;;;4.10;2.50;;;;;;;21.27;53.19;100673.36;105790;1273;24046;-79
2022/08/04 02:35:13;;;;;;;3.60;2.70;;;;;;;21.27;53.06;100668.21;106073;1273;22533;-80
2022/08/04 02:41:55;;;;;;;3.60;2.30;;;;;;;21.26;52.60;100668.45;106127;1273;26615;-76
2022/08/04 02:44:25;;;;;;;3.80;2.70;;;;;;;21.24;52.52;100668.69;105746;1279;25411;-75
2022/08/04 02:46:53;;;;;;;2.90;2.40;;;;;;;21.25;52.38;100667.74;105717;1279;22541;-77
2022/08/04 02:53:36;;;;;;;2.30;2.00;;;;;;;21.23;52.36;100666.21;105663;1279;22559;-75
2022/08/04 02:56:06;;;;;;;3.60;2.80;;;;;;;21.24;52.26;100662.79;105664;1279;22563;-74
2022/08/04 02:58:36;;;;;;;2.60;2.40;;;;;;;21.25;52.26;100665.79;105617;1277;22552;-74
2022/08/04 03:01:03;;;;;;;3.40;2.60;;;;;;;21.25;52.06;100665.06;105861;1279;24460;-76
2022/08/04 03:03:50;;;;;;;3.20;2.60;;;;;;;21.24;52.06;100666.22;106012;1273;22525;-76
2022/08/04 03:06:39;;;;;;;3.80;2.50;;;;;;;21.24;52.09;100666.91;105783;1278;22531;-76
2022/08/04 03:13:58;;;;;;;3.60;2.40;;;;;;;21.23;52.17;100675.75;105824;1277;22492;-76
2022/08/04 03:16:31;;;;;;;6.80;2.20;;;;;;;21.20;52.04;100674.99;105142;1287;25565;-86
2022/08/04 03:19:28;;;;;;;2.60;2.30;;;;;;;21.21;52.22;100677.98;104900;1287;22737;-73
2022/08/04 03:22:10;;;;;;;4.10;2.80;;;;;;;21.21;52.17;100677.29;104881;1287;24243;-78
2022/08/04 03:25:41;;;;;;;4.20;2.40;;;;;;;21.22;52.33;100683.64;105152;1284;22721;-71
2022/08/04 03:28:32;;;;;;;3.50;2.30;;;;;;;21.21;52.32;100681.56;104863;1284;26484;-71
2022/08/04 03:31:47;;;;;;;4.00;2.70;;;;;;;21.21;52.17;100681.39;105044;1284;22545;-75
2022/08/04 03:34:32;;;;;;;3.40;2.50;;;;;;;21.21;52.13;100681.75;104804;1287;23162;-72
2022/08/04 03:37:12;;;;;;;2.70;2.40;;;;;;;21.20;52.24;100684.10;105159;1284;22717;-74
2022/08/04 03:39:51;;;;;;;3.10;2.60;;;;;;;21.22;52.36;100692.63;105079;1284;22570;-71
2022/08/04 03:42:45;;;;;;;4.30;2.70;;;;;;;21.21;52.46;100694.27;105143;1284;25277;-71
2022/08/04 03:45:34;;;;;;;2.90;2.50;;;;;;;21.21;52.38;100691.27;105276;1284;22633;-73
2022/08/04 03:48:23;;;;;;;3.90;2.50;;;;;;;21.21;52.56;100692.70;105727;1276;22591;-77
2022/08/04 03:54:13;;;;;;;4.50;2.80;;;;;;;21.19;52.65;100697.81;107907;1274;22476;-74
2022/08/04 03:57:09;;;;;;;5.70;3.10;;;;;;;21.16;52.62;100699.54;107668;1274;22561;-74
2022/08/04 03:59:47;;;;;;;;;;;;;;;21.14;52.89;100697.83;108136;1274;25390;-71
2022/08/04 04:02:41;;;;;;;3.80;2.60;;;;;;;21.14;53.21;100699.44;108037;1274;22782;-73
2022/08/04 04:05:36;;;;;;;5.10;3.00;;;;;;;21.15;53.08;100700.30;107607;1274;22565;-72
2022/08/04 04:08:45;;;;;;;3.10;2.80;;;;;;;21.12;53.04;100699.02;106554;1274;25438;-74
2022/08/04 04:11:50;;;;;;;3.20;2.50;;;;;;;21.15;53.15;100701.52;107099;1274;25286;-74
2022/08/04 04:14:38;;;;;;;2.70;2.50;;;;;;;21.14;53.09;100701.26;106184;1273;25310;-70
2022/08/04 04:17:20;;;;;;;4.40;3.00;;;;;;;21.12;53.12;100704.20;105699;1281;22537;-74
2022/08/04 04:20:09;;;;;;;4.10;2.40;;;;;;;21.11;53.10;100708.92;105556;1281;22649;-73
2022/08/04 04:22:57;;;;;;;4.60;2.80;;;;;;;21.09;53.22;100707.75;105505;1278;23224;-76
2022/08/04 04:25:52;;;;;;;3.30;2.60;;;;;;;21.07;53.34;100707.88;105763;1278;25248;-74
2022/08/04 04:28:47;;;;;;;7.40;3.10;;;;;;;21.05;53.24;100706.52;105749;1278;22560;-76
2022/08/04 04:31:29;;;;;;;5.00;3.20;;;;;;;21.06;53.30;100709.50;105760;1281;23081;-78
2022/08/04 04:34:24;;;;;;;4.50;2.90;;;;;;;21.08;53.38;100708.36;105662;1279;24258;-76
2022/08/04 04:36:53;;;;;;;3.80;2.70;;;;;;;21.12;53.41;100714.42;106130;1274;22532;-76
2022/08/04 04:39:30;;;;;;;7.20;3.10;;;;;;;21.13;53.54;100714.75;106165;1274;23077;-76
2022/08/04 04:42:29;;;;;;;10.60;3.10;;;;;;;21.14;53.69;100713.44;106022;1274;25264;-74
2022/08/04 04:45:17;;;;;;;5.40;3.00;;;;;;;21.16;53.53;100712.96;106036;1275;22603;-78
2022/08/04 04:48:29;;;;;;;5.50;2.80;;;;;;;21.18;53.92;100712.36;105942;1274;25329;-75
2022/08/04 04:51:15;;;;;;;4.90;3.60;;;;;;;21.20;54.17;100714.39;106478;1274;24263;-75
2022/08/04 04:54:21;;;;;;;9.50;4.00;;;;;;;21.21;54.64;100717.38;106270;1274;22538;-80
2022/08/04 04:56:52;;;;;;;4.20;3.80;;;;;;;21.21;55.17;100719.20;106134;1274;22519;-80
2022/08/04 04:59:26;;;;;;;5.80;4.10;;;;;;;21.23;55.62;100721.23;106100;1274;22844;-77
2022/08/04 05:01:59;;;;;;;5.00;4.10;;;;;;;21.23;55.83;100728.73;106143;1274;23148;-77
2022/08/04 05:04:41;;;;;;;5.40;3.40;;;;;;;21.24;55.72;100728.33;106098;1274;22547;-83
2022/08/04 05:07:16;;;;;;;5.70;3.40;;;;;;;21.25;55.37;100730.64;106089;1274;25261;-77
2022/08/04 05:09:59;;;;;;;3.90;3.50;;;;;;;21.26;55.13;100733.59;105836;1277;22728;-76
2022/08/04 05:12:49;;;;;;;3.50;3.20;;;;;;;21.29;54.89;100732.04;105830;1278;24265;-78
2022/08/04 05:15:41;;;;;;;7.40;3.50;;;;;;;21.31;54.95;100733.04;105894;1277;22551;-80
2022/08/04 05:18:15;;;;;;;7.30;3.80;;;;;;;21.32;55.03;100727.59;105775;1278;22557;-80
2022/08/04 05:20:47;;;;;;;5.90;3.50;;;;;;;21.36;54.99;100731.92;105822;1280;22543;-79
2022/08/04 05:23:21;;;;;;;4.00;3.40;;;;;;;21.36;54.98;100731.89;105746;1281;22668;-78
2022/08/04 05:25:53;;;;;;;6.10;3.80;;;;;;;21.37;54.80;100734.16;105876;1278;25360;-78
2022/08/04 05:28:35;;;;;;;9.00;3.80;;;;;;;21.39;54.74;100735.30;105684;1281;22553;-78
2022/08/04 05:31:17;;;;;;;4.00;3.30;;;;;;;21.43;54.72;100732.63;105588;1278;24316;-77
2022/08/04 05:33:56;;;;;;;7.60;3.50;;;;;;;21.45;54.84;100729.66;105777;1274;25423;-76
2022/08/04 05:36:38;;;;;;;4.10;3.50;;;;;;;21.47;54.63;100729.92;106129;1273;23374;-77
2022/08/04 05:39:15;;;;;;;3.70;3.30;;;;;;;21.48;54.65;100729.17;108091;1273;25928;-75
2022/08/04 05:41:44;;;;;;;5.00;3.50;;;;;;;21.50;54.71;100730.66;108127;1273;22509;-77
2022/08/04 05:44:23;;;;;;;6.10;4.00;;;;;;;21.55;54.65;100729.73;106410;1274;22915;-77
2022/08/04 05:46:54;;;;;;;6.50;3.60;;;;;;;21.62;54.76;100734.38;106363;1274;23642;-77
2022/08/04 05:49:28;;;;;;;4.20;3.40;;;;;;;21.68;54.81;100733.71;107042;1274;22539;-80
2022/08/04 05:52:01;;;;;;;6.40;3.60;;;;;;;21.73;54.73;100734.19;108944;1273;22681;-77
2022/08/04 05:54:34;;;;;;;4.80;3.20;;;;;;;21.78;54.51;100733.98;108003;1273;22742;-76
2022/08/04 05:57:06;;;;;;;6.10;3.70;;;;;;;21.82;54.50;100739.33;106022;1273;24239;-77
2022/08/04 05:59:37;;;;;;;7.90;3.50;;;;;;;21.84;54.60;100744.23;105602;1281;24285;-76
2022/08/04 06:02:07;;;;;;;6.80;4.10;;;;;;;21.90;54.49;100747.70;105727;1280;22701;-75
2022/08/04 06:04:37;;;;;;;6.40;3.50;;;;;;;21.91;54.67;100743.71;105581;1281;22587;-77
2022/08/04 06:07:06;;;;;;;7.50;4.30;;;;;;;21.99;54.30;100748.16;105569;1281;22570;-77
2022/08/04 06:09:33;;;;;;;8.30;3.50;;;;;;;22.06;54.39;100750.70;105620;1281;24253;-78
2022/08/04 06:12:05;;;;;;;5.90;3.60;;;;;;;22.11;54.05;100752.38;105660;1281;25401;-76
2022/08/04 06:14:42;;;;;;;8.70;3.60;;;;;;;22.14;53.55;100751.34;105555;1281;22598;-76
2022/08/04 06:17:13;;;;;;;6.60;4.10;;;;;;;22.15;53.58;100750.72;105823;1275;22551;-78
2022/08/04 06:20:02;;;;;;;5.40;3.80;;;;;;;22.19;53.55;100751.80;106009;1274;24317;-77
2022/08/04 06:22:57;;;;;;;4.80;3.40;;;;;;;22.24;53.88;100750.42;106129;1274;22553;-78
2022/08/04 06:25:30;;;;;;;4.50;3.30;;;;;;;22.31;53.50;100751.21;106248;1274;25361;-80
2022/08/04 06:27:58;;;;;;;4.20;3.30;;;;;;;22.35;53.15;100752.02;106223;1274;22604;-76
2022/08/04 06:30:29;;;;;;;5.70;3.60;;;;;;;22.39;53.28;100755.58;106166;1273;22736;-77
2022/08/04 06:33:01;;;;;;;4.80;3.50;;;;;;;22.43;53.31;100758.08;106063;1273;22762;-77
2022/08/04 06:35:32;;;;;;;10.00;3.90;;;;;;;22.47;53.47;100759.64;106146;1274;22561;-77
2022/08/04 06:38:00;;;;;;;5.60;3.90;;;;;;;22.52;53.79;100757.25;105981;1275;22558;-75
2022/08/04 06:40:28;;;;;;;5.30;3.20;;;;;;;22.57;53.42;100760.06;106049;1274;240107;-77
2022/08/04 06:43:01;;;;;;;8.30;3.30;;;;;;;22.61;53.25;100761.45;106028;1274;22592;-74
2022/08/04 06:45:30;;;;;;;5.70;3.30;;;;;;;22.63;52.86;100761.88;105704;1277;22547;-77
2022/08/04 06:47:59;;;;;;;12.00;3.80;;;;;;;22.68;53.19;100759.83;105744;1277;22889;-81
2022/08/04 06:50:28;;;;;;;10.30;3.70;;;;;;;22.74;53.52;100761.45;105900;1277;22730;-75
2022/08/04 06:53:16;;;;;;;4.00;3.60;;;;;;;22.81;53.69;100756.80;105794;1278;23598;-77
2022/08/04 06:55:46;;;;;;;7.60;3.40;;;;;;;22.87;53.72;100755.61;105858;1278;22639;-78
2022/08/04 06:58:15;;;;;;;5.10;3.60;;;;;;;22.91;53.78;100756.23;105940;1280;22537;-77
2022/08/04 07:00:46;;;;;;;6.50;3.60;;;;;;;22.96;53.51;100756.52;106555;1277;22705;-77
2022/08/04 07:03:17;;;;;;;6.90;3.90;;;;;;;23.00;53.56;100749.48;108024;1274;22619;-76
2022/08/04 07:05:50;;;;;;;4.00;3.40;;;;;;;23.07;53.24;100750.36;108071;1273;24591;-77
2022/08/04 07:08:18;;;;;;;9.20;4.00;;;;;;;23.12;53.10;100750.09;108310;1274;22515;-76
2022/08/04 07:10:46;;;;;;;7.00;3.50;;;;;;;23.19;52.82;100752.92;109117;1273;22522;-78
2022/08/04 07:13:16;;;;;;;8.10;3.20;;;;;;;23.25;52.70;100751.15;109249;1274;22516;-77
2022/08/04 07:15:45;;;;;;;9.00;3.80;;;;;;;23.33;52.68;100755.21;108148;1273;24274;-77
2022/08/04 07:18:12;;;;;;;3.10;2.80;;;;;;;23.40;52.54;100756.21;106417;1273;25357;-79
2022/08/04 07:20:44;;;;;;;6.40;3.00;;;;;;;23.48;52.01;100754.58;106264;1274;22560;-77
2022/08/04 07:23:16;;;;;;;3.60;2.80;;;;;;;23.55;51.74;100755.80;106144;1273;22527;-77
2022/08/04 07:25:50;;;;;;;4.80;2.70;;;;;;;23.61;51.24;100755.59;106049;1274;25264;-78
2022/08/04 07:28:38;;;;;;;4.80;3.00;;;;;;;23.69;50.89;100755.86;106047;1274;22652;-78
2022/08/04 07:31:09;;;;;;;5.20;3.40;;;;;;;23.76;50.55;100757.64;106092;1274;22619;-78
2022/08/04 07:33:58;;;;;;;3.80;2.60;;;;;;;23.84;50.03;100758.92;106029;1276;22676;-80
2022/08/04 07:36:45;;;;;;;8.10;2.60;;;;;;;23.90;49.05;100760.41;106116;1273;23929;-77
2022/08/04 07:39:20;;;;;;;3.70;2.60;;;;;;;23.94;49.14;100761.75;105912;1273;22553;-76
2022/08/04 07:41:56;;;;;;;7.30;2.50;;;;;;;24.02;48.95;100760.39;106033;1273;25661;-78
2022/08/04 07:44:24;;;;;;;4.40;2.10;;;;;;;24.08;48.68;100756.81;106129;1273;22694;-78
2022/08/04 07:46:50;;;;;;;3.90;2.50;;;;;;;24.15;48.67;100759.12;106281;1273;22536;-76
2022/08/04 07:49:19;;;;;;;4.90;2.60;;;;;;;24.21;48.53;100763.09;106023;1273;24484;-75
2022/08/04 07:52:06;;;;;;;5.40;2.50;;;;;;;24.28;48.33;100757.45;106074;1273;22565;-77
2022/08/04 07:54:34;;;;;;;5.10;2.40;;;;;;;24.32;47.97;100755.20;106260;1273;24220;-77
2022/08/04 07:57:02;;;;;;;3.90;2.30;;;;;;;24.37;48.04;100747.91;106782;1273;22490;-76
2022/08/04 07:59:30;;;;;;;6.20;2.60;;;;;;;24.44;48.13;100745.85;106750;1273;24175;-77
2022/08/04 08:02:01;;;;;;;5.90;2.70;;;;;;;24.56;48.47;100746.41;106042;1273;25164;-77
2022/08/04 08:04:29;;;;;;;4.10;2.60;;;;;;;24.68;48.29;100744.58;106062;1273;25255;-77
2022/08/04 08:06:57;;;;;;;4.60;2.60;;;;;;;24.78;48.05;100746.78;106108;1273;22564;-79
2022/08/04 08:09:24;;;;;;;6.20;2.40;;;;;;;24.87;47.25;100741.56;106065;1273;24231;-78
2022/08/04 08:11:53;;;;;;;4.80;2.30;;;;;;;24.93;46.96;100743.88;106190;1273;23834;-79
2022/08/04 08:14:40;;;;;;;5.60;2.80;;;;;;;24.97;47.33;100747.07;106172;1273;24429;-76
2022/08/04 08:17:07;;;;;;;4.70;2.30;;;;;;;25.02;46.84;100746.59;106000;1273;22550;-75
2022/08/04 08:19:35;;;;;;;4.90;2.20;;;;;;;25.07;46.71;100744.65;105941;1273;23591;-77
2022/08/04 08:22:02;;;;;;;3.70;2.10;;;;;;;25.12;46.28;100746.51;106178;1273;22628;-78
2022/08/04 08:24:33;;;;;;;3.40;2.10;;;;;;;25.19;46.15;100744.92;106059;1273;24321;-79
2022/08/04 08:27:03;;;;;;;7.10;2.80;;;;;;;25.34;46.06;100749.01;106078;1273;24457;-78
2022/08/04 08:29:33;;;;;;;3.20;2.00;;;;;;;25.46;46.21;100749.15;105992;1273;25271;-80
2022/08/04 08:32:01;;;;;;;9.80;2.10;;;;;;;25.52;45.56;100746.56;106082;1274;22556;-79
2022/08/04 08:34:34;;;;;;;2.50;2.30;;;;;;;25.61;45.93;100745.63;105993;1273;24380;-78
2022/08/04 08:37:40;;;;;;;3.80;2.30;;;;;;;25.77;46.12;100745.48;106191;1273;22794;-78
2022/08/04 08:40:52;;;;;;;5.50;2.40;;;;;;;25.94;45.37;100746.51;105947;1273;24202;-78
2022/08/04 08:43:22;;;;;;;2.50;2.10;;;;;;;26.09;45.33;100749.27;105789;1273;24247;-77
2022/08/04 08:46:35;;;;;;;4.70;2.10;;;;;;;26.28;45.54;100751.21;106049;1273;25420;-78
2022/08/04 08:49:34;;;;;;;;;;;;;;;26.44;44.52;100749.95;106262;1273;22556;-79
2022/08/04 08:52:31;;;;;;;4.70;2.20;;;;;;;26.56;44.47;100748.21;106673;1273;22499;-75
2022/08/04 08:55:31;;;;;;;2.40;1.90;;;;;;;26.73;44.43;100746.67;106629;1273;25268;-76
2022/08/04 08:58:25;;;;;;;3.00;2.00;;;;;;;26.84;43.60;100743.72;106280;1273;22528;-81
2022/08/04 09:01:20;;;;;;;3.20;2.20;;;;;;;26.97;43.59;100745.13;105977;1273;22527;-76
2022/08/04 09:04:21;;;;;;;2.40;1.80;;;;;;;27.10;43.26;100744.02;106163;1273;22553;-76
2022/08/04 09:07:09;;;;;;;4.20;2.20;;;;;;;27.25;42.94;100744.22;106137;1273;22567;-77
2022/08/04 09:09:45;;;;;;;;;;;;;;;27.34;42.47;100745.52;106180;1274;22522;-76
2022/08/04 09:12:40;;;;;;;20.20;2.30;;;;;;;27.41;42.43;100744.11;106235;1274;25452;-80
2022/08/04 09:15:33;;;;;;;3.30;2.10;;;;;;;27.48;41.88;100737.50;106071;1273;22531;-79
2022/08/04 09:18:06;;;;;;;4.40;2.20;;;;;;;27.57;41.92;100739.17;106128;1273;25269;-78
2022/08/04 09:20:46;;;;;;;2.20;1.80;;;;;;;27.69;41.91;100738.60;106115;1273;25488;-74
2022/08/04 09:23:27;;;;;;;2.40;1.90;;;;;;;27.81;41.91;100737.89;106084;1275;22557;-79
2022/08/04 09:26:08;;;;;;;2.20;1.80;;;;;;;27.95;41.92;100740.06;105996;1273;22747;-79
2022/08/04 09:28:48;;;;;;;3.40;1.80;;;;;;;28.05;40.90;100741.33;106182;1273;23941;-77
2022/08/04 09:31:27;;;;;;;2.00;1.90;;;;;;;28.11;40.11;100740.48;106127;1273;25416;-79
2022/08/04 09:34:25;;;;;;;3.80;2.20;;;;;;;28.12;40.00;100736.29;106058;1273;22541;-78
2022/08/04 09:37:12;;;;;;;4.40;2.30;;;;;;;28.18;40.21;100736.66;106187;1273;25590;-77
2022/08/04 09:39:54;;;;;;;3.30;1.80;;;;;;;28.29;40.42;100735.14;105983;1273;25441;-83
2022/08/04 09:42:43;;;;;;;3.10;2.00;;;;;;;28.42;40.07;100742.11;106363;1273;25383;-76
2022/08/04 09:45:28;;;;;;;3.10;2.00;;;;;;;28.52;39.82;100734.77;106393;1273;22531;-79
2022/08/04 09:48:30;;;;;;;9.60;3.10;;;;;;;28.69;39.99;100734.71;106404;1273;25284;-76
2022/08/04 09:50:58;;;;;;;4.40;1.80;;;;;;;28.85;39.72;100734.30;106099;1273;26511;-76
2022/08/04 09:53:53;;;;;;;2.20;1.80;;;;;;;29.03;39.59;100737.05;106061;1273;25398;-74
2022/08/04 09:56:41;;;;;;;5.50;2.20;;;;;;;29.20;39.14;100738.48;106042;1273;22547;-76
2022/08/04 09:59:22;;;;;;;2.70;1.80;;;;;;;29.21;38.18;100735.48;106151;1273;24343;-80
2022/08/04 10:01:57;;;;;;;3.30;1.90;;;;;;;29.28;38.41;100734.17;106188;1273;25243;-79
2022/08/04 10:04:30;;;;;;;53.40;7.50;;;;;;;29.40;38.17;100732.61;106101;1273;25213;-80
2022/08/04 10:07:06;;;;;;;3.10;2.00;;;;;;;29.52;38.13;100733.96;106975;1273;22614;-75
2022/08/04 10:09:59;;;;;;;2.50;2.20;;;;;;;29.54;37.24;100729.60;107845;1273;22572;-76
2022/08/04 10:12:58;;;;;;;17.90;3.90;;;;;;;29.72;37.75;100730.52;108184;1273;23767;-76
2022/08/04 10:16:00;;;;;;;7.00;2.60;;;;;;;29.95;37.45;100726.42;108585;1277;22744;-77
2022/08/04 10:18:44;;;;;;;3.10;2.00;;;;;;;30.14;36.99;100722.79;108609;1277;22564;-75
2022/08/04 10:21:23;;;;;;;4.00;2.30;;;;;;;30.30;36.96;100725.23;109322;1277;22616;-76
2022/08/04 10:24:29;;;;;;;2.40;2.20;;;;;;;30.47;36.30;100723.57;108404;1277;22571;-76
2022/08/04 10:27:03;;;;;;;2.40;2.20;;;;;;;30.57;35.94;100723.45;106455;1277;25390;-75
2022/08/04 10:29:41;;;;;;;5.50;1.90;;;;;;;30.69;35.60;100714.71;105972;1278;23939;-78
2022/08/04 10:32:14;;;;;;;5.40;2.40;;;;;;;30.89;35.76;100714.45;105745;1277;22568;-78
2022/08/04 10:35:12;;;;;;;3.30;2.50;;;;;;;31.05;35.38;100710.07;105988;1274;25427;-77
2022/08/04 10:37:43;;;;;;;7.80;2.50;;;;;;;31.25;35.18;100716.95;105915;1273;26600;-76
2022/08/04 10:40:46;;;;;;;5.90;2.40;;;;;;;31.41;35.11;100714.86;105911;1273;25471;-75
2022/08/04 10:43:50;;;;;;;2.90;2.00;;;;;;;31.54;34.72;100711.98;105866;1273;25363;-75
2022/08/04 10:46:29;;;;;;;2.70;2.50;;;;;;;31.49;34.14;100705.00;106131;1273;22566;-77
2022/08/04 10:49:03;;;;;;;2.60;2.10;;;;;;;31.50;34.22;100705.81;106199;1273;22550;-77
2022/08/04 10:51:43;;;;;;;6.90;2.30;;;;;;;31.59;34.20;100698.40;106092;1273;22537;-77
2022/08/04 10:54:49;;;;;;;5.10;2.50;;;;;;;31.75;34.03;100701.69;106090;1273;24251;-77
2022/08/04 10:57:47;;;;;;;5.60;2.30;;;;;;;31.95;33.85;100700.36;106077;1273;24394;-77
2022/08/04 11:00:20;;;;;;;2.20;2.10;;;;;;;32.05;33.25;100700.67;106751;1273;22682;-77
2022/08/04 11:03:33;;;;;;;3.10;2.80;;;;;;;32.13;33.02;100695.08;106082;1273;23080;-77
2022/08/04 11:06:03;;;;;;;6.30;2.10;;;;;;;32.18;32.93;100689.45;106075;1273;22534;-77
2022/08/04 11:08:37;;;;;;;4.60;2.40;;;;;;;32.31;32.91;100691.13;106021;1273;22541;-77
2022/08/04 11:11:06;;;;;;;3.00;2.20;;;;;;;32.34;32.81;100683.91;106078;1273;24691;-75
2022/08/04 11:13:45;;;;;;;5.00;2.30;;;;;;;32.44;32.95;100681.83;106094;1273;24303;-77
2022/08/04 11:16:20;;;;;;;4.90;2.10;;;;;;;32.60;32.95;100687.65;106135;1275;25315;-78
2022/08/04 11:18:55;;;;;;;6.20;1.90;;;;;;;32.72;32.73;100683.75;106054;1274;22572;-86
2022/08/04 11:21:32;;;;;;;5.50;2.40;;;;;;;32.84;32.67;100677.26;106001;1274;22678;-75
2022/08/04 11:24:07;;;;;;;4.40;2.10;;;;;;;32.99;32.21;100684.39;105993;1274;22556;-74
2022/08/04 11:26:48;;;;;;;10.00;2.40;;;;;;;33.08;31.96;100680.56;105911;1275;22557;-76
2022/08/04 11:29:24;;;;;;;8.60;2.40;;;;;;;33.17;31.83;100678.94;105905;1274;24313;-76
2022/08/04 11:31:52;;;;;;;7.50;3.00;;;;;;;33.30;31.86;100674.52;105951;1274;25831;-77
2022/08/04 11:34:21;;;;;;;3.10;2.00;;;;;;;33.44;31.56;100678.00;105989;1274;23917;-77
2022/08/04 11:37:12;;;;;;;3.80;2.10;;;;;;;33.47;31.32;100678.16;106024;1274;25336;-86
2022/08/04 11:39:50;;;;;;;2.60;1.90;;;;;;;33.26;31.55;100678.95;106060;1274;24331;-79
2022/08/04 11:42:22;;;;;;;2.70;2.00;;;;;;;33.06;31.47;100679.89;106090;1274;25268;-77
2022/08/04 11:44:54;;;;;;;3.20;2.20;;;;;;;33.10;31.54;100677.10;106117;1274;26540;-84
2022/08/04 11:47:29;;;;;;;2.90;2.00;;;;;;;33.23;31.60;100677.85;106074;1274;24021;-78
2022/08/04 11:50:08;;;;;;;5.40;2.00;;;;;;;33.25;31.41;100675.08;106107;1274;23917;-78
2022/08/04 11:52:41;;;;;;;4.80;1.70;;;;;;;33.15;31.14;100679.90;106030;1274;22630;-76
2022/08/04 11:55:12;;;;;;;5.00;1.90;;;;;;;33.21;31.05;100680.60;106062;1274;22876;-77
2022/08/04 11:57:39;;;;;;;4.70;1.90;;;;;;;33.22;30.73;100678.39;106051;1274;22924;-76
2022/08/04 12:00:11;;;;;;;4.50;2.40;;;;;;;33.34;30.84;100678.31;105807;1275;22528;-77
2022/08/04 12:02:41;;;;;;;2.30;1.90;;;;;;;33.41;30.58;100670.31;105720;1275;22966;-80
2022/08/04 12:05:08;;;;;;;4.80;2.70;;;;;;;33.23;30.79;100667.19;106090;1274;24311;-76
2022/08/04 12:08:18;;;;;;;5.60;2.20;;;;;;;33.11;30.92;100667.46;106091;1274;22563;-76
2022/08/04 12:11:08;;;;;;;7.70;2.20;;;;;;;33.10;30.74;100666.46;105975;1274;25250;-78
2022/08/04 12:13:56;;;;;;;6.00;2.00;;;;;;;33.26;30.91;100662.69;105924;1274;22579;-78
2022/08/04 12:16:41;;;;;;;4.30;2.50;;;;;;;33.47;30.39;100663.38;105944;1274;22547;-81
2022/08/04 12:19:45;;;;;;;3.60;1.80;;;;;;;33.55;30.42;100666.33;106077;1274;24417;-77
2022/08/04 12:22:46;;;;;;;4.60;1.80;;;;;;;33.61;29.74;100660.64;106023;1273;22580;-80
2022/08/04 12:25:39;;;;;;;1.90;1.80;;;;;;;33.79;29.74;100651.94;106160;1273;22561;-78
2022/08/04 12:28:34;;;;;;;2.00;1.90;;;;;;;34.05;29.81;100655.90;106133;1274;22627;-78
2022/08/04 12:31:47;;;;;;;2.40;2.10;;;;;;;34.33;29.47;100652.48;106220;1270;23928;-82
2022/08/04 12:34:41;;;;;;;5.60;2.40;;;;;;;34.40;29.20;100653.17;106188;1273;24629;-76
2022/08/04 12:37:25;;;;;;;1.70;1.60;;;;;;;34.32;29.15;100648.71;106154;1273;24184;-77
2022/08/04 12:39:58;;;;;;;2.20;2.00;;;;;;;34.29;29.15;100647.16;106037;1274;22877;-79
2022/08/04 12:42:57;;;;;;;3.20;1.80;;;;;;;34.26;28.64;100640.58;106129;1273;24821;-78
2022/08/04 12:45:27;;;;;;;2.20;1.90;;;;;;;34.33;28.74;100642.39;105980;1273;25438;-79
2022/08/04 12:47:58;;;;;;;3.60;1.80;;;;;;;34.53;28.81;100637.61;106093;1274;25415;-85
2022/08/04 12:50:26;;;;;;;3.10;2.00;;;;;;;34.75;28.77;100633.55;105981;1273;22494;-78
2022/08/04 12:52:56;;;;;;;5.70;2.10;;;;;;;34.94;28.53;100634.62;106036;1274;22534;-77